createdAt,value
2017-05-14T00:00:18.815Z,18.00
2017-05-14T00:01:19.539Z,18.00
2017-05-14T00:02:20.542Z,29.00
2017-05-14T00:03:21.269Z,33.00
2017-05-14T00:04:21.996Z,29.00
2017-05-14T00:05:22.734Z,22.00
2017-05-14T00:06:23.452Z,17.00
2017-05-14T00:07:24.430Z,19.00
2017-05-14T00:08:25.158Z,23.00
2017-05-14T00:09:25.887Z,32.00
2017-05-14T00:10:26.638Z,26.00
2017-05-14T00:11:27.369Z,27.00
2017-05-14T00:12:28.344Z,29.00
2017-05-14T00:13:29.073Z,23.00
2017-05-14T00:14:30.056Z,23.00
2017-05-14T00:15:30.785Z,23.00
2017-05-14T00:16:31.511Z,32.00
2017-05-14T00:17:32.490Z,25.00
2017-05-14T00:18:33.218Z,27.00
2017-05-14T00:19:33.969Z,31.00
2017-05-14T00:20:34.695Z,28.00
2017-05-14T00:21:35.421Z,26.00
2017-05-14T00:22:36.400Z,28.00
2017-05-14T00:23:37.454Z,29.00
2017-05-14T00:24:38.108Z,26.00
2017-05-14T00:25:38.836Z,27.00
2017-05-14T00:26:39.566Z,31.00
2017-05-14T00:27:40.542Z,25.00
2017-05-14T00:28:41.271Z,28.00
2017-05-14T00:29:41.999Z,23.00
2017-05-14T00:30:42.729Z,23.00
2017-05-14T00:31:43.453Z,26.00
2017-05-14T00:32:44.431Z,24.00
2017-05-14T00:33:45.161Z,23.00
2017-05-14T00:34:45.887Z,28.00
2017-05-14T00:35:46.614Z,23.00
2017-05-14T00:36:47.342Z,26.00
2017-05-14T00:37:48.319Z,27.00
2017-05-14T00:38:49.041Z,39.00
2017-05-14T00:39:49.793Z,32.00
2017-05-14T00:40:50.521Z,42.00
2017-05-14T00:41:51.249Z,34.00
2017-05-14T00:42:52.229Z,23.00
2017-05-14T00:43:52.954Z,38.00
2017-05-14T00:44:53.706Z,20.00
2017-05-14T00:45:54.434Z,30.00
2017-05-14T00:46:55.159Z,29.00
2017-05-14T00:47:56.136Z,26.00
2017-05-14T00:48:56.862Z,27.00
2017-05-14T00:49:57.592Z,25.00
2017-05-14T00:50:58.320Z,27.00
2017-05-14T00:51:59.072Z,26.00
2017-05-14T00:53:00.050Z,36.00
2017-05-14T00:54:00.778Z,33.00
2017-05-14T00:55:01.511Z,21.00
2017-05-14T00:56:02.237Z,25.00
2017-05-14T00:57:02.965Z,33.00
2017-05-14T00:58:03.941Z,28.00
2017-05-14T00:59:04.667Z,31.00
2017-05-14T01:00:05.396Z,30.00
2017-05-14T01:01:06.122Z,35.00
2017-05-14T01:02:06.848Z,27.00
2017-05-14T01:03:07.825Z,32.00
2017-05-14T01:04:08.554Z,29.00
2017-05-14T01:05:09.283Z,36.00
2017-05-14T01:06:10.010Z,27.00
2017-05-14T01:07:10.741Z,35.00
2017-05-14T01:08:11.713Z,32.00
2017-05-14T01:09:12.465Z,34.00
2017-05-14T01:10:13.192Z,33.00
2017-05-14T01:11:13.919Z,31.00
2017-05-14T01:12:14.650Z,25.00
2017-05-14T01:13:15.629Z,34.00
2017-05-14T01:14:16.357Z,25.00
2017-05-14T01:15:17.084Z,24.00
2017-05-14T01:16:17.814Z,28.00
2017-05-14T01:17:18.540Z,22.00
2017-05-14T01:18:19.519Z,35.00
2017-05-14T01:19:20.244Z,29.00
2017-05-14T01:20:20.971Z,20.00
2017-05-14T01:21:21.697Z,21.00
2017-05-14T01:22:22.449Z,30.00
2017-05-14T01:23:23.428Z,24.00
2017-05-14T01:24:24.179Z,31.00
2017-05-14T01:25:24.909Z,30.00
2017-05-14T01:26:25.634Z,26.00
2017-05-14T01:27:26.363Z,45.00
2017-05-14T01:28:27.338Z,27.00
2017-05-14T01:29:28.068Z,32.00
2017-05-14T01:30:28.796Z,26.00
2017-05-14T01:31:29.523Z,32.00
2017-05-14T01:32:30.250Z,29.00
2017-05-14T01:33:31.232Z,41.00
2017-05-14T01:34:31.962Z,34.00
2017-05-14T01:35:32.713Z,31.00
2017-05-14T01:36:33.443Z,23.00
2017-05-14T01:37:34.168Z,27.00
2017-05-14T01:38:35.145Z,35.00
2017-05-14T01:39:35.876Z,31.00
2017-05-14T01:40:36.600Z,36.00
2017-05-14T01:41:37.331Z,30.00
2017-05-14T01:42:38.057Z,35.00
2017-05-14T01:43:39.035Z,34.00
2017-05-14T01:44:39.761Z,36.00
2017-05-14T01:45:40.488Z,33.00
2017-05-14T01:46:41.212Z,34.00
2017-05-14T01:47:41.942Z,40.00
2017-05-14T01:48:42.918Z,31.00
2017-05-14T01:49:43.647Z,31.00
2017-05-14T01:50:44.375Z,34.00
2017-05-14T01:51:45.100Z,34.00
2017-05-14T01:52:45.827Z,33.00
2017-05-14T01:53:46.806Z,33.00
2017-05-14T01:54:47.535Z,34.00
2017-05-14T01:55:48.285Z,37.00
2017-05-14T01:56:49.262Z,37.00
2017-05-14T01:57:49.991Z,42.00
2017-05-14T01:58:50.718Z,34.00
2017-05-14T01:59:51.446Z,38.00
2017-05-14T02:00:52.177Z,36.00
2017-05-14T02:01:53.202Z,53.00
2017-05-14T02:02:53.885Z,45.00
2017-05-14T02:03:54.615Z,41.00
2017-05-14T02:04:55.343Z,45.00
2017-05-14T02:05:56.097Z,36.00
2017-05-14T02:06:57.073Z,37.00
2017-05-14T02:07:57.799Z,36.00
2017-05-14T02:08:58.529Z,46.00
2017-05-14T02:09:59.255Z,42.00
2017-05-14T02:10:59.984Z,34.00
2017-05-14T02:12:00.966Z,40.00
2017-05-14T02:13:01.691Z,34.00
2017-05-14T02:14:02.422Z,36.00
2017-05-14T02:15:03.152Z,27.00
2017-05-14T02:16:03.874Z,33.00
2017-05-14T02:17:04.852Z,36.00
2017-05-14T02:18:05.581Z,29.00
2017-05-14T02:19:06.312Z,29.00
2017-05-14T02:20:07.039Z,39.00
2017-05-14T02:21:07.789Z,40.00
2017-05-14T02:22:08.767Z,46.00
2017-05-14T02:23:09.518Z,34.00
2017-05-14T02:24:10.245Z,41.00
2017-05-14T02:25:10.976Z,35.00
2017-05-14T02:26:11.701Z,44.00
2017-05-14T02:27:12.681Z,29.00
2017-05-14T02:28:13.407Z,42.00
2017-05-14T02:29:14.135Z,40.00
2017-05-14T02:30:14.865Z,46.00
2017-05-14T02:31:15.594Z,44.00
2017-05-14T02:32:16.572Z,41.00
2017-05-14T02:33:17.297Z,45.00
2017-05-14T02:34:18.053Z,40.00
2017-05-14T02:35:18.806Z,36.00
2017-05-14T02:36:19.533Z,44.00
2017-05-14T02:37:20.513Z,45.00
2017-05-14T02:38:21.237Z,39.00
2017-05-14T02:39:21.965Z,39.00
2017-05-14T02:40:22.697Z,45.00
2017-05-14T02:41:23.451Z,38.00
2017-05-14T02:42:24.425Z,37.00
2017-05-14T02:43:25.153Z,31.00
2017-05-14T02:44:25.879Z,37.00
2017-05-14T02:45:26.610Z,43.00
2017-05-14T02:46:27.338Z,45.00
2017-05-14T02:47:28.313Z,44.00
2017-05-14T02:48:29.042Z,38.00
2017-05-14T02:49:29.770Z,46.00
2017-05-14T02:50:30.502Z,39.00
2017-05-14T02:51:31.224Z,43.00
2017-05-14T02:52:32.229Z,43.00
2017-05-14T02:53:32.985Z,43.00
2017-05-14T02:54:33.711Z,45.00
2017-05-14T02:55:34.440Z,42.00
2017-05-14T02:56:35.169Z,41.00
2017-05-14T02:57:36.200Z,36.00
2017-05-14T02:58:36.875Z,50.00
2017-05-14T02:59:37.602Z,45.00
2017-05-14T03:00:38.330Z,40.00
2017-05-14T03:01:39.056Z,35.00
2017-05-14T03:02:40.035Z,40.00
2017-05-14T03:03:40.763Z,45.00
2017-05-14T03:04:41.488Z,38.00
2017-05-14T03:05:42.217Z,33.00
2017-05-14T03:06:42.947Z,35.00
2017-05-14T03:07:43.925Z,37.00
2017-05-14T03:08:44.650Z,37.00
2017-05-14T03:09:45.378Z,43.00
2017-05-14T03:10:46.105Z,63.00
2017-05-14T03:11:46.835Z,46.00
2017-05-14T03:12:47.815Z,40.00
2017-05-14T03:13:48.547Z,38.00
2017-05-14T03:14:49.275Z,44.00
2017-05-14T03:15:50.030Z,47.00
2017-05-14T03:16:50.757Z,44.00
2017-05-14T03:17:51.790Z,32.00
2017-05-14T03:18:52.543Z,42.00
2017-05-14T03:19:53.275Z,35.00
2017-05-14T03:20:54.002Z,40.00
2017-05-14T03:21:54.731Z,39.00
2017-05-14T03:22:55.739Z,46.00
2017-05-14T03:23:56.463Z,50.00
2017-05-14T03:24:57.194Z,37.00
2017-05-14T03:25:57.923Z,44.00
2017-05-14T03:26:58.657Z,41.00
2017-05-14T03:27:59.631Z,38.00
2017-05-14T03:29:00.358Z,60.00
2017-05-14T03:30:01.086Z,38.00
2017-05-14T03:31:01.816Z,48.00
2017-05-14T03:32:02.545Z,48.00
2017-05-14T03:33:03.520Z,63.00
2017-05-14T03:34:04.252Z,32.00
2017-05-14T03:35:04.982Z,42.00
2017-05-14T03:36:05.712Z,56.00
2017-05-14T03:37:06.444Z,40.00
2017-05-14T03:38:07.423Z,54.00
2017-05-14T03:39:08.154Z,36.00
2017-05-14T03:40:08.881Z,54.00
2017-05-14T03:41:09.614Z,39.00
2017-05-14T03:42:10.343Z,41.00
2017-05-14T03:43:11.323Z,39.00
2017-05-14T03:44:12.057Z,46.00
2017-05-14T03:45:12.783Z,50.00
2017-05-14T03:46:13.515Z,42.00
2017-05-14T03:47:14.244Z,39.00
2017-05-14T03:48:15.251Z,54.00
2017-05-14T03:49:15.983Z,49.00
2017-05-14T03:50:16.716Z,52.00
2017-05-14T03:51:17.443Z,39.00
2017-05-14T03:52:18.176Z,37.00
2017-05-14T03:53:19.157Z,42.00
2017-05-14T03:54:19.889Z,41.00
2017-05-14T03:55:20.646Z,43.00
2017-05-14T03:56:21.375Z,53.00
2017-05-14T03:57:22.106Z,51.00
2017-05-14T03:58:23.090Z,51.00
2017-05-14T03:59:23.823Z,49.00
2017-05-14T04:00:24.550Z,50.00
2017-05-14T04:01:25.279Z,50.00
2017-05-14T04:02:26.009Z,41.00
2017-05-14T04:03:27.015Z,56.00
2017-05-14T04:06:59.202Z,51.00
2017-05-14T04:07:59.931Z,49.00
2017-05-14T04:09:00.663Z,39.00
2017-05-14T04:10:01.415Z,44.00
2017-05-14T04:11:02.147Z,42.00
2017-05-14T04:12:03.126Z,45.00
2017-05-14T04:13:03.858Z,39.00
2017-05-14T04:14:04.589Z,49.00
2017-05-14T04:15:05.317Z,52.00
2017-05-14T04:16:06.040Z,55.00
2017-05-14T04:17:07.024Z,55.00
2017-05-14T04:18:07.755Z,55.00
2017-05-14T04:19:08.489Z,50.00
2017-05-14T04:20:09.219Z,35.00
2017-05-14T04:21:09.952Z,46.00
2017-05-14T04:22:10.936Z,38.00
2017-05-14T04:23:11.667Z,50.00
2017-05-14T04:24:12.400Z,45.00
2017-05-14T04:25:13.132Z,48.00
2017-05-14T04:26:13.865Z,54.00
2017-05-14T04:27:14.846Z,46.00
2017-05-14T04:28:15.579Z,52.00
2017-05-14T04:29:16.309Z,41.00
2017-05-14T04:30:17.041Z,46.00
2017-05-14T04:31:17.772Z,54.00
2017-05-14T04:32:18.755Z,55.00
2017-05-14T04:33:19.485Z,35.00
2017-05-14T04:34:20.219Z,40.00
2017-05-14T04:35:20.950Z,53.00
2017-05-14T04:36:21.683Z,47.00
2017-05-14T04:37:22.665Z,49.00
2017-05-14T04:38:23.398Z,54.00
2017-05-14T04:39:24.129Z,42.00
2017-05-14T04:40:24.864Z,50.00
2017-05-14T04:41:25.595Z,43.00
2017-05-14T04:42:26.579Z,47.00
2017-05-14T04:43:27.310Z,52.00
2017-05-14T04:44:28.041Z,51.00
2017-05-14T04:45:28.776Z,53.00
2017-05-14T04:46:29.506Z,56.00
2017-05-14T04:47:30.491Z,58.00
2017-05-14T04:48:31.220Z,49.00
2017-05-14T04:49:31.952Z,47.00
2017-05-14T04:50:32.686Z,44.00
2017-05-14T04:51:33.416Z,67.00
2017-05-14T04:52:34.424Z,54.00
2017-05-14T04:53:35.156Z,51.00
2017-05-14T04:54:35.889Z,56.00
2017-05-14T04:55:36.621Z,63.00
2017-05-14T04:56:37.356Z,49.00
2017-05-14T04:57:38.339Z,54.00
2017-05-14T04:58:39.071Z,57.00
2017-05-14T04:59:39.803Z,49.00
2017-05-14T05:00:40.534Z,44.00
2017-05-14T05:01:41.268Z,58.00
2017-05-14T05:02:42.295Z,55.00
2017-05-14T05:03:42.983Z,60.00
2017-05-14T05:04:43.715Z,51.00
2017-05-14T05:05:44.447Z,58.00
2017-05-14T05:06:45.181Z,53.00
2017-05-14T05:07:46.163Z,43.00
2017-05-14T05:08:46.919Z,69.00
2017-05-14T05:09:47.677Z,60.00
2017-05-14T05:10:48.409Z,63.00
2017-05-14T05:11:49.145Z,57.00
2017-05-14T05:12:50.131Z,58.00
2017-05-14T05:13:50.887Z,56.00
2017-05-14T05:14:51.624Z,66.00
2017-05-14T05:15:52.357Z,68.00
2017-05-14T05:16:53.115Z,55.00
2017-05-14T05:17:54.097Z,54.00
2017-05-14T05:18:54.829Z,55.00
2017-05-14T05:19:55.562Z,68.00
2017-05-14T05:20:56.302Z,49.00
2017-05-14T05:21:57.032Z,53.00
2017-05-14T05:22:58.016Z,63.00
2017-05-14T05:23:58.749Z,62.00
2017-05-14T05:24:59.481Z,50.00
2017-05-14T05:26:00.219Z,60.00
2017-05-14T05:27:00.953Z,61.00
2017-05-14T05:28:01.939Z,53.00
2017-05-14T05:29:02.696Z,58.00
2017-05-14T05:30:03.429Z,56.00
2017-05-14T05:31:04.167Z,56.00
2017-05-14T05:32:04.899Z,51.00
2017-05-14T05:33:05.881Z,72.00
2017-05-14T05:34:06.643Z,75.00
2017-05-14T05:35:07.400Z,56.00
2017-05-14T05:36:08.140Z,50.00
2017-05-14T05:37:08.872Z,54.00
2017-05-14T05:38:09.857Z,62.00
2017-05-14T05:39:10.615Z,60.00
2017-05-14T05:40:11.351Z,66.00
2017-05-14T05:41:12.083Z,60.00
2017-05-14T05:42:12.817Z,57.00
2017-05-14T05:43:13.803Z,51.00
2017-05-14T05:44:14.539Z,70.00
2017-05-14T05:45:15.273Z,71.00
2017-05-14T05:46:16.008Z,59.00
2017-05-14T05:47:16.746Z,59.00
2017-05-14T05:48:17.725Z,54.00
2017-05-14T05:49:18.460Z,57.00
2017-05-14T05:50:19.196Z,36.00
2017-05-14T05:51:19.932Z,71.00
2017-05-14T05:52:20.666Z,65.00
2017-05-14T05:53:21.653Z,70.00
2017-05-14T05:54:22.387Z,47.00
2017-05-14T05:55:23.121Z,65.00
2017-05-14T05:56:23.855Z,51.00
2017-05-14T05:57:24.585Z,61.00
2017-05-14T05:58:25.570Z,63.00
2017-05-14T05:59:26.305Z,60.00
2017-05-14T06:00:27.038Z,53.00
2017-05-14T06:01:27.772Z,56.00
2017-05-14T06:02:28.519Z,52.00
2017-05-14T06:03:29.521Z,51.00
2017-05-14T06:04:30.254Z,60.00
2017-05-14T06:05:30.987Z,55.00
2017-05-14T06:06:31.722Z,60.00
2017-05-14T06:07:32.456Z,58.00
2017-05-14T06:08:33.439Z,59.00
2017-05-14T06:09:34.374Z,55.00
2017-05-14T06:10:35.112Z,64.00
2017-05-14T06:11:35.846Z,56.00
2017-05-14T06:12:36.587Z,52.00
2017-05-14T06:17:24.350Z,53.00
2017-05-14T06:18:25.084Z,54.00
2017-05-14T06:19:25.844Z,54.00
2017-05-14T06:20:26.580Z,52.00
2017-05-14T06:21:27.313Z,54.00
2017-05-14T06:22:28.301Z,52.00
2017-05-14T06:23:29.034Z,51.00
2017-05-14T06:24:29.770Z,47.00
2017-05-14T06:25:30.503Z,51.00
2017-05-14T06:26:31.239Z,56.00
2017-05-14T06:27:32.250Z,49.00
2017-05-14T06:28:32.982Z,57.00
2017-05-14T06:29:33.741Z,57.00
2017-05-14T06:30:34.478Z,56.00
2017-05-14T06:31:35.214Z,41.00
2017-05-14T06:32:36.202Z,54.00
2017-05-14T06:33:36.937Z,52.00
2017-05-14T06:34:37.671Z,43.00
2017-05-14T06:35:38.407Z,54.00
2017-05-14T06:36:39.141Z,45.00
2017-05-14T06:37:40.127Z,54.00
2017-05-14T06:38:40.862Z,54.00
2017-05-14T06:39:41.599Z,49.00
2017-05-14T06:40:42.340Z,54.00
2017-05-14T06:41:43.093Z,55.00
2017-05-14T06:42:44.080Z,55.00
2017-05-14T06:43:44.814Z,56.00
2017-05-14T06:44:45.552Z,68.00
2017-05-14T06:45:46.285Z,52.00
2017-05-14T06:46:47.022Z,58.00
2017-05-14T06:47:48.008Z,73.00
2017-05-14T06:48:48.745Z,61.00
2017-05-14T06:49:49.481Z,56.00
2017-05-14T06:50:50.242Z,54.00
2017-05-14T06:51:50.976Z,52.00
2017-05-14T06:52:51.966Z,68.00
2017-05-14T06:53:52.703Z,53.00
2017-05-14T06:54:53.441Z,57.00
2017-05-14T06:55:54.179Z,45.00
2017-05-14T06:56:54.917Z,47.00
2017-05-14T06:57:55.904Z,48.00
2017-05-14T06:58:56.641Z,46.00
2017-05-14T06:59:57.379Z,40.00
2017-05-14T07:00:58.118Z,43.00
2017-05-14T07:01:58.858Z,41.00
2017-05-14T07:02:59.848Z,55.00
2017-05-14T07:04:00.585Z,49.00
2017-05-14T07:05:01.322Z,44.00
2017-05-14T07:06:02.059Z,54.00
2017-05-14T07:07:02.800Z,31.00
2017-05-14T07:08:03.787Z,37.00
2017-05-14T07:09:04.526Z,42.00
2017-05-14T07:10:05.268Z,38.00
2017-05-14T07:11:06.009Z,46.00
2017-05-14T07:12:07.081Z,42.00
2017-05-14T07:15:43.508Z,52.00
2017-05-14T07:19:15.449Z,45.00
2017-05-14T07:20:16.194Z,39.00
2017-05-14T07:21:17.188Z,44.00
2017-05-14T07:22:17.955Z,42.00
2017-05-14T07:23:18.696Z,36.00
2017-05-14T07:24:19.435Z,33.00
2017-05-14T07:25:20.178Z,38.00
2017-05-14T07:26:21.170Z,44.00
2017-05-14T07:27:21.914Z,46.00
2017-05-14T07:28:22.656Z,27.00
2017-05-14T07:29:23.399Z,42.00
2017-05-14T07:30:24.167Z,32.00
2017-05-14T07:31:25.157Z,50.00
2017-05-14T07:32:25.900Z,52.00
2017-05-14T07:33:26.648Z,39.00
2017-05-14T07:34:27.380Z,31.00
2017-05-14T07:35:28.123Z,42.00
2017-05-14T07:36:29.115Z,38.00
2017-05-14T07:37:29.858Z,37.00
2017-05-14T07:38:30.600Z,38.00
2017-05-14T07:39:31.343Z,37.00
2017-05-14T07:40:32.109Z,28.00
2017-05-14T07:41:33.125Z,38.00
2017-05-14T07:42:33.865Z,37.00
2017-05-14T07:46:06.098Z,35.00
2017-05-14T07:47:06.844Z,39.00
2017-05-14T07:48:07.588Z,31.00
2017-05-14T07:49:08.359Z,31.00
2017-05-14T07:50:09.107Z,39.00
2017-05-14T07:51:10.103Z,40.00
2017-05-14T07:52:10.849Z,35.00
2017-05-14T07:53:11.596Z,38.00
2017-05-14T07:54:12.346Z,35.00
2017-05-14T07:55:13.091Z,27.00
2017-05-14T07:56:14.086Z,30.00
2017-05-14T07:57:14.835Z,35.00
2017-05-14T07:58:15.580Z,25.00
2017-05-14T07:59:16.329Z,21.00
2017-05-14T08:00:17.076Z,31.00
2017-05-14T08:01:18.075Z,27.00
2017-05-14T08:02:18.849Z,29.00
2017-05-14T08:03:19.595Z,16.00
2017-05-14T08:04:20.342Z,27.00
2017-05-14T08:05:21.091Z,33.00
2017-05-14T08:06:22.086Z,24.00
2017-05-14T08:07:22.836Z,21.00
2017-05-14T08:08:23.584Z,22.00
2017-05-14T08:09:24.333Z,27.00
2017-05-14T08:10:25.107Z,19.00
2017-05-14T08:11:26.104Z,32.00
2017-05-14T08:12:26.855Z,20.00
2017-05-14T08:13:27.604Z,29.00
2017-05-14T08:14:28.352Z,26.00
2017-05-14T08:15:29.098Z,22.00
2017-05-14T08:16:30.100Z,26.00
2017-05-14T08:17:30.846Z,24.00
2017-05-14T08:18:31.595Z,19.00
2017-05-14T08:19:32.346Z,27.00
2017-05-14T08:20:33.092Z,17.00
2017-05-14T08:21:34.092Z,19.00
2017-05-14T08:22:34.844Z,22.00
2017-05-14T08:23:35.597Z,19.00
2017-05-14T08:24:36.371Z,20.00
2017-05-14T08:25:37.116Z,20.00
2017-05-14T08:26:38.115Z,16.00
2017-05-14T08:27:38.890Z,26.00
2017-05-14T08:28:39.634Z,17.00
2017-05-14T08:34:43.055Z,17.00
2017-05-14T08:35:43.823Z,21.00
2017-05-14T08:36:44.593Z,18.00
2017-05-14T08:37:45.338Z,20.00
2017-05-14T08:38:46.081Z,24.00
2017-05-14T08:39:47.099Z,21.00
2017-05-14T08:40:47.844Z,27.00
2017-05-14T08:41:48.584Z,13.00
2017-05-14T08:42:49.351Z,17.00
2017-05-14T08:43:50.094Z,13.00
2017-05-14T08:44:51.090Z,22.00
2017-05-14T08:45:51.833Z,17.00
2017-05-14T08:46:52.576Z,17.00
2017-05-14T08:47:53.318Z,10.00
2017-05-14T08:48:54.061Z,15.00
2017-05-14T08:49:55.056Z,9.00
2017-05-14T08:50:55.800Z,6.00
2017-05-14T08:51:56.541Z,10.00
2017-05-14T08:52:57.284Z,19.00
2017-05-14T08:53:58.027Z,12.00
2017-05-14T08:54:59.022Z,13.00
2017-05-14T08:58:30.980Z,17.00
2017-05-14T08:59:31.728Z,11.00
2017-05-14T09:00:32.774Z,19.00
2017-05-14T09:01:33.520Z,12.00
2017-05-14T09:02:34.262Z,9.00
2017-05-14T09:03:35.013Z,15.00
2017-05-14T09:04:35.763Z,20.00
2017-05-14T09:05:36.761Z,8.00
2017-05-14T09:06:37.507Z,7.00
2017-05-14T09:07:38.256Z,10.00
2017-05-14T09:08:39.007Z,9.00
2017-05-14T09:09:39.755Z,15.00
2017-05-14T09:10:40.758Z,11.00
2017-05-14T09:11:41.506Z,9.00
2017-05-14T09:12:42.256Z,8.00
2017-05-14T09:13:43.004Z,13.00
2017-05-14T09:14:44.082Z,9.00
2017-05-14T09:15:45.015Z,10.00
2017-05-14T09:16:45.762Z,6.00
2017-05-14T09:17:46.511Z,11.00
2017-05-14T09:18:47.259Z,7.00
2017-05-14T09:19:48.010Z,6.00
2017-05-14T09:20:49.011Z,9.00
2017-05-14T09:21:49.768Z,13.00
2017-05-14T09:22:50.544Z,6.00
2017-05-14T09:23:51.299Z,14.00
2017-05-14T09:24:52.048Z,9.00
2017-05-14T09:25:53.053Z,6.00
2017-05-14T09:26:53.835Z,6.00
2017-05-14T09:27:54.592Z,10.00
2017-05-14T09:28:55.345Z,12.00
2017-05-14T09:29:56.106Z,14.00
2017-05-14T09:30:57.115Z,10.00
2017-05-14T09:31:57.874Z,9.00
2017-05-14T09:32:58.635Z,7.00
2017-05-14T09:33:59.393Z,11.00
2017-05-14T09:35:00.183Z,9.00
2017-05-14T09:36:01.218Z,17.00
2017-05-14T09:37:01.974Z,9.00
2017-05-14T09:38:02.735Z,13.00
2017-05-14T09:39:03.523Z,9.00
2017-05-14T09:40:04.290Z,7.00
2017-05-14T09:41:05.299Z,10.00
2017-05-14T09:42:06.122Z,12.00
2017-05-14T09:43:06.876Z,8.00
2017-05-14T09:44:07.635Z,10.00
2017-05-14T09:45:08.396Z,9.00
2017-05-14T09:46:09.406Z,10.00
2017-05-14T09:47:10.170Z,6.00
2017-05-14T09:48:10.928Z,10.00
2017-05-14T09:49:11.685Z,10.00
2017-05-14T09:50:12.472Z,7.00
2017-05-14T09:51:13.483Z,6.00
2017-05-14T09:52:14.237Z,14.00
2017-05-14T09:53:15.021Z,10.00
2017-05-14T09:54:15.797Z,6.00
2017-05-14T09:55:16.614Z,9.00
2017-05-14T09:56:17.619Z,5.00
2017-05-14T09:57:18.379Z,10.00
2017-05-14T09:58:19.134Z,6.00
2017-05-14T09:59:19.892Z,8.00
2017-05-14T10:00:20.677Z,11.00
2017-05-14T10:01:21.687Z,10.00
2017-05-14T10:02:22.442Z,8.00
2017-05-14T10:03:23.196Z,11.00
2017-05-14T10:04:24.220Z,21.00
2017-05-14T10:05:25.007Z,10.00
2017-05-14T10:06:26.015Z,11.00
2017-05-14T10:07:26.774Z,11.00
2017-05-14T10:08:27.531Z,7.00
2017-05-14T10:09:28.288Z,11.00
2017-05-14T10:10:29.083Z,10.00
2017-05-14T10:11:30.095Z,9.00
2017-05-14T10:12:30.854Z,8.00
2017-05-14T10:13:31.609Z,6.00
2017-05-14T10:14:32.367Z,3.00
2017-05-14T10:15:33.117Z,15.00
2017-05-14T10:16:34.119Z,14.00
2017-05-14T10:17:34.865Z,15.00
2017-05-14T10:18:35.634Z,8.00
2017-05-14T10:19:36.381Z,8.00
2017-05-14T10:20:37.146Z,7.00
2017-05-14T10:21:38.143Z,9.00
2017-05-14T10:22:38.886Z,5.00
2017-05-14T10:23:39.629Z,13.00
2017-05-14T10:24:40.415Z,7.00
2017-05-14T10:25:41.160Z,12.00
2017-05-14T10:26:42.208Z,6.00
2017-05-14T10:27:42.952Z,11.00
2017-05-14T10:28:43.720Z,6.00
2017-05-14T10:29:44.463Z,8.00
2017-05-14T10:30:45.202Z,9.00
2017-05-14T10:31:46.205Z,7.00
2017-05-14T10:32:46.977Z,8.00
2017-05-14T10:33:47.759Z,11.00
2017-05-14T10:34:48.506Z,5.00
2017-05-14T10:35:49.250Z,7.00
2017-05-14T10:36:50.246Z,11.00
2017-05-14T10:37:50.995Z,6.00
2017-05-14T10:38:51.766Z,11.00
2017-05-14T10:39:52.538Z,6.00
2017-05-14T10:40:53.288Z,7.00
2017-05-14T10:41:54.285Z,7.00
2017-05-14T10:42:55.036Z,7.00
2017-05-14T10:43:55.801Z,6.00
2017-05-14T10:44:56.554Z,7.00
2017-05-14T10:45:57.309Z,6.00
2017-05-14T10:46:58.313Z,5.00
2017-05-14T10:47:59.068Z,6.00
2017-05-14T10:48:59.842Z,9.00
2017-05-14T10:50:00.883Z,16.00
2017-05-14T10:51:01.899Z,9.00
2017-05-14T10:52:02.907Z,9.00
2017-05-14T10:53:03.670Z,13.00
2017-05-14T10:54:04.433Z,8.00
2017-05-14T10:55:05.186Z,6.00
2017-05-14T10:56:05.958Z,8.00
2017-05-14T10:57:06.960Z,5.00
2017-05-14T10:58:07.756Z,8.00
2017-05-14T10:59:08.513Z,10.00
2017-05-14T11:00:09.276Z,12.00
2017-05-14T11:01:10.028Z,11.00
2017-05-14T11:02:11.086Z,18.00
2017-05-14T11:03:11.840Z,8.00
2017-05-14T11:04:12.600Z,12.00
2017-05-14T11:05:13.380Z,4.00
2017-05-14T11:06:14.131Z,6.00
2017-05-14T11:07:15.131Z,9.00
2017-05-14T11:08:15.881Z,9.00
2017-05-14T11:09:16.637Z,7.00
2017-05-14T11:10:17.394Z,7.00
2017-05-14T11:11:18.145Z,12.00
2017-05-14T11:12:19.153Z,9.00
2017-05-14T11:13:19.921Z,6.00
2017-05-14T11:14:20.672Z,5.00
2017-05-14T11:15:21.430Z,8.00
2017-05-14T11:16:22.184Z,12.00
2017-05-14T11:17:23.188Z,10.00
2017-05-14T11:18:23.940Z,10.00
2017-05-14T11:19:24.701Z,10.00
2017-05-14T11:20:25.487Z,8.00
2017-05-14T11:21:26.241Z,9.00
2017-05-14T11:22:27.243Z,9.00
2017-05-14T11:23:28.002Z,5.00
2017-05-14T11:24:28.789Z,11.00
2017-05-14T11:25:29.552Z,7.00
2017-05-14T11:26:30.316Z,8.00
2017-05-14T11:27:31.343Z,11.00
2017-05-14T11:28:32.104Z,17.00
2017-05-14T11:29:32.856Z,6.00
2017-05-14T11:30:33.619Z,6.00
2017-05-14T11:31:34.374Z,9.00
2017-05-14T11:32:35.377Z,7.00
2017-05-14T11:33:36.134Z,8.00
2017-05-14T11:34:36.887Z,9.00
2017-05-14T11:35:37.650Z,6.00
2017-05-14T11:36:38.408Z,5.00
2017-05-14T11:37:39.415Z,8.00
2017-05-14T11:38:40.194Z,5.00
2017-05-14T11:39:40.948Z,6.00
2017-05-14T11:40:41.706Z,12.00
2017-05-14T11:41:42.464Z,6.00
2017-05-14T11:42:43.496Z,7.00
2017-05-14T11:43:44.281Z,5.00
2017-05-14T11:44:45.040Z,10.00
2017-05-14T11:45:45.798Z,22.00
2017-05-14T11:46:46.557Z,8.00
2017-05-14T11:47:47.567Z,17.00
2017-05-14T11:48:48.321Z,4.00
2017-05-14T11:49:49.106Z,4.00
2017-05-14T11:50:49.863Z,4.00
2017-05-14T11:51:50.620Z,8.00
2017-05-14T11:52:51.626Z,4.00
2017-05-14T11:53:52.406Z,4.00
2017-05-14T11:54:53.159Z,5.00
2017-05-14T11:55:53.911Z,5.00
2017-05-14T11:56:54.666Z,3.00
2017-05-14T11:57:55.672Z,5.00
2017-05-14T11:58:56.422Z,8.00
2017-05-14T11:59:57.197Z,3.00
2017-05-14T12:00:57.940Z,6.00
2017-05-14T12:01:58.684Z,3.00
2017-05-14T12:02:59.677Z,8.00
2017-05-14T12:04:00.422Z,14.00
2017-05-14T12:05:01.188Z,4.00
2017-05-14T12:06:01.929Z,6.00
2017-05-14T12:07:02.672Z,4.00
2017-05-14T12:08:03.665Z,6.00
2017-05-14T12:09:04.407Z,7.00
2017-05-14T12:10:05.146Z,6.00
2017-05-14T12:11:05.890Z,4.00
2017-05-14T12:12:06.622Z,6.00
2017-05-14T12:13:07.613Z,13.00
2017-05-14T12:14:08.357Z,14.00
2017-05-14T12:15:09.097Z,9.00
2017-05-14T12:16:09.836Z,15.00
2017-05-14T12:17:10.601Z,11.00
2017-05-14T12:18:11.594Z,5.00
2017-05-14T12:19:12.333Z,19.00
2017-05-14T12:20:13.077Z,16.00
2017-05-14T12:21:13.821Z,6.00
2017-05-14T12:22:14.564Z,8.00
2017-05-14T12:23:15.559Z,13.00
2017-05-14T12:24:16.294Z,11.00
2017-05-14T12:25:17.036Z,12.00
2017-05-14T12:26:17.782Z,13.00
2017-05-14T12:27:18.521Z,8.00
2017-05-14T12:28:19.513Z,13.00
2017-05-14T12:29:20.255Z,14.00
2017-05-14T12:30:20.994Z,20.00
2017-05-14T12:31:21.735Z,9.00
2017-05-14T12:32:22.499Z,17.00
2017-05-14T12:33:23.490Z,15.00
2017-05-14T12:34:24.489Z,21.00
2017-05-14T12:35:25.230Z,11.00
2017-05-14T12:36:25.970Z,20.00
2017-05-14T12:37:26.707Z,11.00
2017-05-14T12:38:27.723Z,18.00
2017-05-14T12:39:28.464Z,11.00
2017-05-14T12:40:29.209Z,10.00
2017-05-14T12:41:29.944Z,9.00
2017-05-14T12:42:30.688Z,6.00
2017-05-14T12:43:31.681Z,19.00
2017-05-14T12:44:32.425Z,8.00
2017-05-14T12:45:33.169Z,5.00
2017-05-14T12:46:33.914Z,8.00
2017-05-14T12:47:34.660Z,6.00
2017-05-14T12:48:35.653Z,17.00
2017-05-14T12:49:36.398Z,5.00
2017-05-14T12:50:37.144Z,6.00
2017-05-14T12:51:37.895Z,8.00
2017-05-14T12:52:38.638Z,6.00
2017-05-14T12:53:39.657Z,8.00
2017-05-14T12:54:40.404Z,5.00
2017-05-14T12:55:41.149Z,6.00
2017-05-14T12:56:41.898Z,5.00
2017-05-14T12:57:42.645Z,4.00
2017-05-14T12:58:43.642Z,5.00
2017-05-14T12:59:44.383Z,4.00
2017-05-14T13:00:45.127Z,4.00
2017-05-14T13:01:45.899Z,25.00
2017-05-14T13:02:46.641Z,5.00
2017-05-14T13:03:47.632Z,4.00
2017-05-14T13:04:48.378Z,4.00
2017-05-14T13:05:49.125Z,6.00
2017-05-14T13:06:49.876Z,4.00
2017-05-14T13:07:50.646Z,5.00
2017-05-14T13:08:51.642Z,4.00
2017-05-14T13:09:52.388Z,6.00
2017-05-14T13:10:53.133Z,7.00
2017-05-14T13:11:53.877Z,6.00
2017-05-14T13:12:54.647Z,13.00
2017-05-14T13:13:55.635Z,4.00
2017-05-14T13:14:56.378Z,5.00
2017-05-14T13:15:57.123Z,4.00
2017-05-14T13:16:57.862Z,12.00
2017-05-14T13:17:58.602Z,7.00
2017-05-14T13:18:59.646Z,7.00
2017-05-14T13:20:00.416Z,8.00
2017-05-14T13:21:01.155Z,4.00
2017-05-14T13:22:01.900Z,5.00
2017-05-14T13:23:02.641Z,7.00
2017-05-14T13:24:03.633Z,7.00
2017-05-14T13:25:04.374Z,8.00
2017-05-14T13:26:05.115Z,8.00
2017-05-14T13:27:05.857Z,6.00
2017-05-14T13:28:06.596Z,7.00
2017-05-14T13:29:07.611Z,9.00
2017-05-14T13:30:08.348Z,6.00